createdAt,value
2024-05-09T00:00:46.745Z,92.00
2024-05-09T00:03:14.571Z,91.80
2024-05-09T00:05:44.280Z,91.90
2024-05-09T00:08:11.840Z,91.50
2024-05-09T00:10:40.317Z,91.60
2024-05-09T00:13:13.521Z,91.90
2024-05-09T00:15:41.405Z,91.70
2024-05-09T00:18:09.478Z,91.70
2024-05-09T00:20:39.797Z,91.80
2024-05-09T00:23:12.166Z,92.00
2024-05-09T00:25:44.572Z,92.30
2024-05-09T00:28:13.609Z,91.90
2024-05-09T00:30:41.471Z,91.80
2024-05-09T00:33:10.390Z,91.70
2024-05-09T00:35:39.921Z,91.70
2024-05-09T00:38:08.563Z,91.70
2024-05-09T00:40:43.268Z,91.80
2024-05-09T00:43:13.909Z,92.00
2024-05-09T00:45:44.182Z,92.20
2024-05-09T00:48:17.727Z,92.30
2024-05-09T00:50:49.609Z,92.10
2024-05-09T00:53:22.152Z,92.20
2024-05-09T00:55:49.423Z,92.00
2024-05-09T00:58:20.960Z,92.00
2024-05-09T01:00:52.569Z,91.80
2024-05-09T01:03:20.546Z,91.80
2024-05-09T01:05:48.029Z,91.80
2024-05-09T01:08:15.231Z,91.70
2024-05-09T01:10:46.103Z,91.90
2024-05-09T01:13:15.335Z,91.90
2024-05-09T01:15:44.032Z,91.90
2024-05-09T01:18:14.640Z,91.80
2024-05-09T01:20:44.680Z,91.90
2024-05-09T01:23:17.074Z,91.90
2024-05-09T01:25:47.618Z,92.20
2024-05-09T01:28:16.266Z,92.20
2024-05-09T01:30:43.994Z,92.00
2024-05-09T01:33:12.420Z,91.90
2024-05-09T01:35:42.110Z,91.90
2024-05-09T01:38:14.042Z,91.70
2024-05-09T01:40:41.419Z,91.90
2024-05-09T01:43:10.569Z,91.80
2024-05-09T01:45:40.667Z,92.10
2024-05-09T01:48:10.020Z,91.90
2024-05-09T01:50:41.951Z,92.10
2024-05-09T01:53:11.928Z,92.20
2024-05-09T01:55:39.430Z,92.30
2024-05-09T01:58:07.420Z,92.50
2024-05-09T02:00:40.268Z,92.30
2024-05-09T02:03:16.313Z,92.20
2024-05-09T02:05:52.403Z,92.40
2024-05-09T02:08:21.866Z,92.00
2024-05-09T02:10:50.388Z,91.90
2024-05-09T02:13:18.592Z,91.90
2024-05-09T02:15:45.979Z,91.80
2024-05-09T02:18:14.011Z,92.00
2024-05-09T02:20:43.247Z,92.60
2024-05-09T02:23:11.366Z,92.20
2024-05-09T02:25:39.079Z,92.20
2024-05-09T02:28:06.382Z,92.10
2024-05-09T02:30:39.779Z,92.20
2024-05-09T02:33:13.565Z,92.30
2024-05-09T02:35:43.109Z,92.20
2024-05-09T02:38:11.158Z,92.20
2024-05-09T02:40:39.773Z,92.00
2024-05-09T02:43:12.343Z,92.40
2024-05-09T02:45:40.803Z,92.50
2024-05-09T02:48:11.547Z,92.50
2024-05-09T02:50:44.730Z,92.30
2024-05-09T02:53:12.772Z,92.50
2024-05-09T02:55:41.355Z,92.50
2024-05-09T02:58:09.655Z,92.50
2024-05-09T03:00:41.277Z,92.10
2024-05-09T03:03:15.328Z,92.10
2024-05-09T03:05:44.827Z,92.20
2024-05-09T03:08:12.526Z,92.00
2024-05-09T03:10:42.745Z,91.80
2024-05-09T03:13:13.227Z,91.70
2024-05-09T03:15:41.629Z,91.90
2024-05-09T03:18:09.538Z,92.00
2024-05-09T03:20:41.022Z,92.20
2024-05-09T03:23:10.037Z,92.10
2024-05-09T03:25:39.270Z,92.10
2024-05-09T03:28:06.551Z,92.30
2024-05-09T03:30:40.728Z,92.90
2024-05-09T03:33:19.380Z,93.10
2024-05-09T03:35:49.052Z,93.00
2024-05-09T03:38:16.644Z,92.70
2024-05-09T03:40:50.225Z,92.80
2024-05-09T03:43:19.572Z,92.80
2024-05-09T03:45:49.603Z,93.00
2024-05-09T03:48:17.233Z,92.80
2024-05-09T03:50:45.180Z,92.50
2024-05-09T03:53:13.505Z,92.50
2024-05-09T03:55:40.899Z,92.90
2024-05-09T03:58:08.529Z,93.00
2024-05-09T04:00:40.305Z,92.80
2024-05-09T04:03:11.021Z,92.40
2024-05-09T04:05:42.101Z,92.40
2024-05-09T04:08:10.869Z,92.60
2024-05-09T04:10:38.454Z,92.60
2024-05-09T04:13:05.967Z,92.60
2024-05-09T04:15:33.610Z,92.60
2024-05-09T04:18:01.709Z,92.70
2024-05-09T04:20:37.305Z,92.70
2024-05-09T04:23:09.207Z,92.90
2024-05-09T04:25:36.879Z,92.90
2024-05-09T04:28:04.412Z,92.80
2024-05-09T04:30:37.884Z,92.40
2024-05-09T04:33:10.581Z,91.90
2024-05-09T04:35:41.927Z,91.90
2024-05-09T04:38:09.619Z,91.90
2024-05-09T04:40:37.648Z,92.50
2024-05-09T04:43:06.872Z,92.70
2024-05-09T04:45:34.586Z,92.60
2024-05-09T04:48:02.322Z,92.20
2024-05-09T04:50:37.601Z,92.20
2024-05-09T04:53:13.543Z,92.20
2024-05-09T04:55:40.845Z,92.90
2024-05-09T04:58:11.801Z,92.50
2024-05-09T05:00:40.691Z,92.30
2024-05-09T05:03:12.861Z,92.30
2024-05-09T05:05:44.501Z,92.40
2024-05-09T05:08:17.443Z,92.50
2024-05-09T05:10:46.265Z,92.30
2024-05-09T05:13:20.735Z,92.00
2024-05-09T05:15:56.606Z,92.00
2024-05-09T05:18:26.515Z,92.20
2024-05-09T05:20:55.547Z,92.40
2024-05-09T05:23:24.396Z,92.60
2024-05-09T05:25:53.452Z,92.20
2024-05-09T05:28:21.840Z,92.30
2024-05-09T05:30:49.276Z,92.30
2024-05-09T05:33:20.007Z,92.60
2024-05-09T05:35:47.659Z,92.70
2024-05-09T05:38:15.271Z,92.40
2024-05-09T05:40:42.846Z,92.30
2024-05-09T05:43:16.284Z,92.50
2024-05-09T05:45:43.675Z,92.50
2024-05-09T05:48:11.225Z,92.40
2024-05-09T05:50:39.028Z,92.50
2024-05-09T05:53:07.707Z,92.80
2024-05-09T05:55:36.299Z,92.70
2024-05-09T05:58:03.656Z,93.10
2024-05-09T06:00:38.152Z,93.20
2024-05-09T06:03:08.289Z,93.10
2024-05-09T06:05:40.238Z,93.00
2024-05-09T06:08:09.068Z,92.80
2024-05-09T06:10:39.469Z,93.10
2024-05-09T06:13:12.188Z,92.90
2024-05-09T06:15:40.951Z,92.50
2024-05-09T06:18:10.413Z,92.70
2024-05-09T06:20:40.205Z,92.90
2024-05-09T06:23:08.999Z,92.80
2024-05-09T06:25:36.646Z,92.90
2024-05-09T06:28:04.590Z,92.90
2024-05-09T06:30:40.386Z,92.50
2024-05-09T06:33:12.284Z,92.40
2024-05-09T06:35:41.310Z,92.10
2024-05-09T06:38:09.537Z,92.50
2024-05-09T06:40:39.896Z,92.50
2024-05-09T06:43:16.900Z,92.20
2024-05-09T06:45:47.948Z,91.80
2024-05-09T06:48:18.212Z,91.80
2024-05-09T06:50:45.710Z,92.00
2024-05-09T06:53:17.066Z,91.80
2024-05-09T06:55:44.310Z,91.70
2024-05-09T06:58:11.382Z,91.80
2024-05-09T07:00:40.949Z,92.00
2024-05-09T07:03:15.878Z,91.50
2024-05-09T07:05:45.979Z,91.60
2024-05-09T07:08:14.086Z,91.20
2024-05-09T07:10:41.538Z,91.00
2024-05-09T07:13:12.734Z,91.00
2024-05-09T07:15:41.204Z,91.10
2024-05-09T07:18:20.059Z,90.80
2024-05-09T07:20:49.229Z,90.60
2024-05-09T07:23:17.715Z,90.40
2024-05-09T07:25:45.394Z,90.30
2024-05-09T07:28:17.598Z,89.90
2024-05-09T07:30:45.415Z,89.80
2024-05-09T07:33:23.495Z,89.60
2024-05-09T07:35:51.907Z,90.20
2024-05-09T07:38:19.260Z,88.60
2024-05-09T07:40:46.769Z,88.90
2024-05-09T07:43:14.771Z,87.30
2024-05-09T07:45:50.784Z,87.80
2024-05-09T07:52:38.218Z,87.00
2024-05-09T07:53:47.793Z,88.20
2024-05-09T07:56:19.472Z,87.40
2024-05-09T07:58:50.677Z,86.20
2024-05-09T08:01:18.227Z,86.10
2024-05-09T08:03:45.797Z,85.30
2024-05-09T08:06:13.103Z,84.00
2024-05-09T08:08:40.485Z,83.90
2024-05-09T08:11:07.421Z,85.10
2024-05-09T08:13:34.380Z,86.10
2024-05-09T08:16:01.449Z,85.80
2024-05-09T08:18:28.671Z,85.00
2024-05-09T08:20:55.951Z,81.50
2024-05-09T08:23:23.894Z,82.60
2024-05-09T08:25:52.854Z,82.80
2024-05-09T08:28:19.886Z,82.90
2024-05-09T08:30:47.017Z,82.40
2024-05-09T08:33:14.243Z,81.70
2024-05-09T08:35:42.929Z,79.70
2024-05-09T08:38:10.006Z,80.80
2024-05-09T08:40:38.089Z,80.90
2024-05-09T08:43:11.439Z,80.40
2024-05-09T08:45:43.773Z,79.50
2024-05-09T08:48:13.324Z,80.20
2024-05-09T08:50:41.435Z,78.40
2024-05-09T08:53:09.255Z,78.40
2024-05-09T08:55:40.432Z,77.10
2024-05-09T08:58:14.347Z,78.20
2024-05-09T09:00:43.515Z,79.00
2024-05-09T09:03:16.928Z,78.00
2024-05-09T09:06:06.787Z,76.90
2024-05-09T09:08:33.719Z,76.20
2024-05-09T09:11:00.785Z,74.90
2024-05-09T09:13:28.001Z,76.20
2024-05-09T09:15:58.473Z,71.00
2024-05-09T09:18:26.983Z,72.60
2024-05-09T09:20:54.119Z,71.90
2024-05-09T09:23:21.329Z,72.00
2024-05-09T09:25:48.427Z,72.70
2024-05-09T09:28:15.880Z,70.50
2024-05-09T09:30:43.843Z,71.50
2024-05-09T09:33:11.782Z,70.60
2024-05-09T09:35:40.542Z,71.00
2024-05-09T09:38:10.100Z,70.20
2024-05-09T09:40:44.993Z,69.90
2024-05-09T09:43:19.935Z,67.30
2024-05-09T09:45:50.647Z,69.10
2024-05-09T09:48:18.107Z,65.90
2024-05-09T09:50:47.296Z,66.30
2024-05-09T09:53:16.098Z,63.50
2024-05-09T09:55:43.541Z,60.50
2024-05-09T09:58:13.954Z,62.10
2024-05-09T10:00:42.271Z,60.00
2024-05-09T10:03:09.947Z,60.40
2024-05-09T10:05:39.858Z,61.30
2024-05-09T10:08:10.089Z,61.30
2024-05-09T10:10:37.397Z,59.90
2024-05-09T10:13:08.592Z,58.60
2024-05-09T10:15:52.393Z,57.00
2024-05-09T10:18:29.153Z,54.60
2024-05-09T10:20:58.011Z,55.80
2024-05-09T10:23:30.036Z,54.30
2024-05-09T10:26:05.098Z,55.60
2024-05-09T10:28:33.985Z,53.80
2024-05-09T10:31:09.003Z,54.40
2024-05-09T10:33:42.288Z,51.30
2024-05-09T10:36:13.571Z,52.60
2024-05-09T10:38:42.947Z,51.10
2024-05-09T10:41:10.402Z,50.00
2024-05-09T10:43:41.119Z,51.50
2024-05-09T10:46:09.595Z,48.90
2024-05-09T10:48:37.855Z,50.70
2024-05-09T10:51:05.473Z,51.40
2024-05-09T10:53:32.421Z,50.00
2024-05-09T10:56:02.419Z,50.00
2024-05-09T10:58:29.343Z,47.20
2024-05-09T11:00:57.701Z,46.30
2024-05-09T11:03:26.091Z,44.50
2024-05-09T11:05:53.887Z,45.10
2024-05-09T11:08:24.654Z,51.00
2024-05-09T11:10:53.514Z,51.30
2024-05-09T11:13:46.542Z,52.20
2024-05-09T11:16:21.463Z,50.70
2024-05-09T11:18:58.991Z,48.90
2024-05-09T11:21:26.819Z,49.60
2024-05-09T11:23:53.995Z,50.30
2024-05-09T11:26:22.323Z,50.00
2024-05-09T11:28:50.792Z,50.70
2024-05-09T11:31:18.263Z,50.40
2024-05-09T11:33:48.488Z,49.20
2024-05-09T11:36:15.846Z,46.80
2024-05-09T11:38:43.050Z,47.80
2024-05-09T11:41:17.329Z,46.00
2024-05-09T11:43:44.474Z,46.90
2024-05-09T11:46:11.713Z,48.00
2024-05-09T11:48:39.944Z,49.70
2024-05-09T11:51:07.152Z,48.50
2024-05-09T11:53:34.129Z,46.90
2024-05-09T11:56:01.089Z,49.40
2024-05-09T11:58:29.875Z,51.20
2024-05-09T12:00:57.330Z,50.50
2024-05-09T12:03:24.647Z,48.20
2024-05-09T12:05:51.811Z,47.80
2024-05-09T12:08:19.385Z,49.20
2024-05-09T12:10:46.606Z,48.30
2024-05-09T12:13:13.851Z,48.60
2024-05-09T12:15:40.944Z,49.00
2024-05-09T12:18:08.529Z,48.80
2024-05-09T12:20:38.815Z,47.00
2024-05-09T12:23:09.273Z,48.30
2024-05-09T12:25:38.410Z,48.50
2024-05-09T12:28:06.075Z,48.60
2024-05-09T12:30:37.999Z,49.40
2024-05-09T12:33:12.527Z,47.80
2024-05-09T12:35:46.444Z,48.10
2024-05-09T12:38:15.452Z,46.40
2024-05-09T12:40:42.849Z,48.40
2024-05-09T12:43:11.162Z,49.50
2024-05-09T12:45:39.537Z,47.10
2024-05-09T12:48:11.896Z,47.10
2024-05-09T12:50:39.929Z,47.00
2024-05-09T12:53:07.322Z,47.10
2024-05-09T12:55:41.266Z,47.50
2024-05-09T12:58:16.971Z,48.00
2024-05-09T13:00:45.545Z,48.60
2024-05-09T13:03:13.221Z,47.50
2024-05-09T13:05:45.268Z,47.40
2024-05-09T13:08:13.225Z,47.20
2024-05-09T13:10:40.413Z,47.60
2024-05-09T13:13:08.886Z,46.20
2024-05-09T13:15:37.031Z,45.50
2024-05-09T13:18:04.716Z,48.20
2024-05-09T13:20:34.528Z,45.70
2024-05-09T13:23:07.929Z,46.30
2024-05-09T13:25:36.438Z,46.80
2024-05-09T13:28:04.682Z,47.10
2024-05-09T13:30:39.292Z,46.50
2024-05-09T13:33:13.655Z,45.00
2024-05-09T13:35:48.800Z,45.70
2024-05-09T13:38:21.413Z,45.90
2024-05-09T13:40:49.232Z,44.80
2024-05-09T13:43:17.835Z,46.90
2024-05-09T13:45:45.143Z,45.50
2024-05-09T13:48:12.532Z,47.00
2024-05-09T13:50:39.994Z,48.50
2024-05-09T13:53:08.302Z,47.10
2024-05-09T13:55:38.514Z,47.60
2024-05-09T13:58:06.298Z,49.00
2024-05-09T14:00:44.015Z,49.50
2024-05-09T14:03:17.029Z,49.70
2024-05-09T14:05:46.069Z,50.10
2024-05-09T14:08:15.397Z,48.50
2024-05-09T14:10:44.340Z,48.10
2024-05-09T14:13:12.189Z,46.80
2024-05-09T14:15:39.216Z,46.80
2024-05-09T14:18:10.198Z,47.20
2024-05-09T14:20:39.345Z,47.40
2024-05-09T14:23:06.286Z,48.00
2024-05-09T14:25:37.920Z,48.60
2024-05-09T14:28:07.795Z,47.50
2024-05-09T14:30:37.730Z,46.10
2024-05-09T14:33:07.123Z,47.10
2024-05-09T14:35:35.134Z,48.20
2024-05-09T14:38:02.490Z,45.50
2024-05-09T14:40:39.540Z,47.90
2024-05-09T14:43:14.530Z,46.10
2024-05-09T14:45:42.455Z,45.60
2024-05-09T14:48:10.476Z,46.20
2024-05-09T14:50:39.615Z,47.00
2024-05-09T14:53:09.593Z,47.00
2024-05-09T14:55:39.260Z,47.30
2024-05-09T14:58:07.836Z,47.50
2024-05-09T15:00:38.363Z,47.60
2024-05-09T15:03:07.109Z,49.30
2024-05-09T15:05:34.241Z,48.60
2024-05-09T15:08:01.280Z,49.50
2024-05-09T15:10:34.527Z,48.60
2024-05-09T15:13:04.058Z,46.60
2024-05-09T15:15:31.622Z,45.60
2024-05-09T15:17:59.275Z,46.50
2024-05-09T15:20:33.488Z,46.40
2024-05-09T15:23:03.514Z,47.00
2024-05-09T15:25:30.962Z,46.80
2024-05-09T15:27:58.138Z,47.20
2024-05-09T15:32:55.234Z,47.80
2024-05-09T15:35:22.350Z,48.20
2024-05-09T15:37:49.580Z,48.90
2024-05-09T15:40:26.136Z,49.10
2024-05-09T15:43:02.358Z,49.30
2024-05-09T15:45:29.585Z,48.20
2024-05-09T15:47:57.350Z,48.00
2024-05-09T15:50:35.327Z,48.90
2024-05-09T15:53:06.690Z,48.80
2024-05-09T15:55:34.699Z,48.90
2024-05-09T15:58:03.383Z,49.70
2024-05-09T16:00:38.374Z,47.80
2024-05-09T16:03:09.730Z,48.60
2024-05-09T16:05:37.871Z,49.70
2024-05-09T16:08:06.062Z,49.30
2024-05-09T16:10:34.636Z,50.90
2024-05-09T16:13:03.335Z,48.80
2024-05-09T16:15:31.105Z,49.20
2024-05-09T16:17:58.576Z,49.40
2024-05-09T16:20:34.437Z,49.90
2024-05-09T16:23:07.037Z,49.90
2024-05-09T16:25:34.041Z,50.30
2024-05-09T16:28:01.902Z,49.50
2024-05-09T16:30:34.736Z,50.20
2024-05-09T16:33:04.429Z,50.30
2024-05-09T16:35:32.187Z,51.00
2024-05-09T16:38:01.273Z,51.50
2024-05-09T16:40:36.214Z,51.60
2024-05-09T16:43:07.185Z,51.80
2024-05-09T16:45:34.626Z,52.40
2024-05-09T16:48:02.282Z,52.30
2024-05-09T16:50:34.049Z,52.90
2024-05-09T16:53:06.880Z,53.50
2024-05-09T16:55:34.981Z,53.20
2024-05-09T16:58:02.692Z,52.70
2024-05-09T17:00:39.267Z,53.10
2024-05-09T17:03:11.431Z,53.50
2024-05-09T17:05:39.732Z,54.60
2024-05-09T17:08:07.605Z,53.70
2024-05-09T17:10:36.064Z,54.20
2024-05-09T17:13:05.140Z,53.80
2024-05-09T17:15:33.813Z,54.30
2024-05-09T17:18:01.643Z,54.60
2024-05-09T17:20:33.738Z,54.70
2024-05-09T17:23:03.894Z,55.40
2024-05-09T17:25:31.019Z,55.20
2024-05-09T17:28:05.321Z,55.20
2024-05-09T17:30:38.334Z,54.70
2024-05-09T17:33:09.423Z,55.10
2024-05-09T17:35:37.508Z,54.50
2024-05-09T17:38:08.336Z,55.00
2024-05-09T17:40:37.401Z,55.50
2024-05-09T17:43:08.047Z,55.60
2024-05-09T17:45:41.044Z,55.40
2024-05-09T17:48:10.716Z,56.00
2024-05-09T17:50:39.220Z,55.70
2024-05-09T17:53:06.849Z,56.40
2024-05-09T17:55:34.317Z,56.40
2024-05-09T17:58:01.764Z,56.70
2024-05-09T18:00:37.012Z,56.50
2024-05-09T18:03:08.637Z,56.30
2024-05-09T18:05:37.099Z,57.20
2024-05-09T18:08:05.893Z,57.00
2024-05-09T18:10:37.161Z,57.20
2024-05-09T18:13:07.404Z,56.60
2024-05-09T18:15:35.171Z,57.20
2024-05-09T18:18:03.372Z,57.20
2024-05-09T18:20:39.928Z,57.50
2024-05-09T18:23:11.535Z,57.80
2024-05-09T18:25:38.493Z,58.30
2024-05-09T18:28:06.612Z,58.40
2024-05-09T18:30:36.620Z,58.60
2024-05-09T18:33:06.484Z,58.50
2024-05-09T18:35:35.727Z,58.60
2024-05-09T18:38:03.249Z,59.00
2024-05-09T18:40:34.638Z,58.90
2024-05-09T18:43:06.267Z,59.60
2024-05-09T18:45:34.879Z,59.60
2024-05-09T18:48:02.279Z,60.20
2024-05-09T18:50:35.597Z,60.50
2024-05-09T18:53:06.379Z,60.10
2024-05-09T18:55:33.620Z,60.70
2024-05-09T18:58:00.838Z,61.70
2024-05-09T19:00:34.593Z,60.60
2024-05-09T19:03:09.256Z,62.10
2024-05-09T19:05:38.774Z,61.20
2024-05-09T19:08:07.540Z,61.50
2024-05-09T19:10:35.997Z,62.50
2024-05-09T19:13:08.278Z,62.50
2024-05-09T19:15:39.502Z,63.50
2024-05-09T19:18:07.445Z,62.60
2024-05-09T19:20:36.245Z,63.10
2024-05-09T19:23:05.880Z,63.90
2024-05-09T19:25:33.661Z,63.70
2024-05-09T19:28:01.355Z,64.10
2024-05-09T19:30:37.935Z,64.50
2024-05-09T19:33:09.584Z,66.30
2024-05-09T19:35:37.425Z,65.60
2024-05-09T19:38:05.234Z,66.30
2024-05-09T19:40:34.067Z,64.90
2024-05-09T19:43:03.104Z,64.90
2024-05-09T19:45:31.272Z,65.60
2024-05-09T19:47:58.768Z,66.60
2024-05-09T19:50:36.158Z,70.60
2024-05-09T19:53:08.880Z,70.50
2024-05-09T19:55:35.943Z,71.30
2024-05-09T19:58:05.326Z,71.70
2024-05-09T20:00:40.058Z,68.60
2024-05-09T20:03:10.025Z,71.30
2024-05-09T20:05:38.067Z,71.30
2024-05-09T20:08:06.228Z,72.60
2024-05-09T20:10:35.453Z,73.00
2024-05-09T20:13:05.209Z,73.70
2024-05-09T20:15:34.931Z,73.70
2024-05-09T20:18:02.512Z,73.20
2024-05-09T20:20:37.296Z,73.40
2024-05-09T20:23:08.586Z,73.10
2024-05-09T20:25:35.721Z,74.00
2024-05-09T20:28:03.052Z,74.80
2024-05-09T20:30:33.746Z,75.50
2024-05-09T20:33:07.287Z,74.10
2024-05-09T20:35:35.685Z,74.50
2024-05-09T20:38:03.709Z,73.20
2024-05-09T20:40:35.377Z,75.80
2024-05-09T20:43:06.578Z,74.30
2024-05-09T20:45:34.328Z,74.70
2024-05-09T20:48:01.963Z,76.50
2024-05-09T20:50:37.000Z,77.00
2024-05-09T20:53:12.482Z,76.50
2024-05-09T20:55:40.708Z,77.10
2024-05-09T20:58:08.864Z,77.60
2024-05-09T21:00:40.364Z,77.60
2024-05-09T21:03:16.638Z,78.00
2024-05-09T21:05:44.697Z,77.90
2024-05-09T21:08:11.908Z,76.00
2024-05-09T21:10:39.201Z,78.00
2024-05-09T21:13:07.140Z,78.80
2024-05-09T21:15:35.898Z,77.30
2024-05-09T21:18:03.686Z,79.20
2024-05-09T21:20:33.393Z,78.80
2024-05-09T21:23:01.947Z,78.90
2024-05-09T21:25:29.455Z,78.60
2024-05-09T21:27:56.444Z,78.90
2024-05-09T21:30:32.555Z,79.20
2024-05-09T21:33:13.211Z,80.40
2024-05-09T21:35:43.008Z,78.60
2024-05-09T21:38:10.333Z,78.60
2024-05-09T21:40:38.212Z,80.80
2024-05-09T21:43:07.204Z,80.50
2024-05-09T21:45:36.379Z,81.00
2024-05-09T21:48:04.565Z,80.90
2024-05-09T21:50:38.985Z,81.40
2024-05-09T21:53:09.123Z,80.80
2024-05-09T21:55:36.255Z,81.50
2024-05-09T21:58:03.818Z,81.70
2024-05-09T22:00:37.023Z,81.20
2024-05-09T22:03:07.518Z,82.10
2024-05-09T22:05:35.999Z,81.90
2024-05-09T22:08:03.713Z,82.60
2024-05-09T22:10:34.790Z,82.50
2024-05-09T22:13:05.666Z,81.70
2024-05-09T22:15:38.186Z,82.50
2024-05-09T22:18:08.454Z,82.90
2024-05-09T22:20:38.971Z,83.50
2024-05-09T22:23:08.206Z,83.00
2024-05-09T22:25:36.252Z,83.10
2024-05-09T22:28:03.733Z,83.50
2024-05-09T22:30:36.177Z,83.40
2024-05-09T22:33:07.306Z,83.40
2024-05-09T22:35:34.866Z,83.80
2024-05-09T22:38:04.068Z,83.90
2024-05-09T22:40:41.678Z,84.00
2024-05-09T22:43:16.645Z,84.00
2024-05-09T22:45:43.950Z,84.50
2024-05-09T22:48:11.394Z,83.70
2024-05-09T22:50:39.099Z,84.20
2024-05-09T22:53:06.290Z,84.70
2024-05-09T22:55:33.216Z,85.30
2024-05-09T22:58:00.386Z,85.20
2024-05-09T23:00:31.680Z,85.20
2024-05-09T23:03:01.679Z,85.30
2024-05-09T23:05:29.547Z,85.10
2024-05-09T23:07:56.832Z,84.80
2024-05-09T23:10:31.738Z,85.80
2024-05-09T23:13:03.673Z,85.70
2024-05-09T23:15:31.234Z,85.60
2024-05-09T23:17:58.938Z,86.00
2024-05-09T23:20:33.802Z,85.60
2024-05-09T23:23:06.461Z,85.70
2024-05-09T23:25:33.955Z,86.40
2024-05-09T23:28:01.474Z,86.40
2024-05-09T23:30:36.636Z,86.50
2024-05-09T23:33:07.433Z,86.30
2024-05-09T23:35:34.840Z,86.40
2024-05-09T23:38:01.965Z,86.50
2024-05-09T23:42:58.883Z,87.00
2024-05-09T23:45:26.279Z,86.90
2024-05-09T23:47:53.577Z,87.80
2024-05-09T23:50:26.853Z,87.00
2024-05-09T23:53:00.742Z,87.30
2024-05-09T23:55:29.164Z,87.20
2024-05-09T23:57:56.180Z,87.30
